Time;durP1;ratioP1;P1;durP2;ratioP2;P2;SDS_P1;SDS_P2;PMS_P1;PMS_P2;Temp;Humidity;BMP_temperature;BMP_pressure;BME280_temperature;BME280_humidity;BME280_pressure;Samples;Min_cycle;Max_cycle;Signal;HPM_P1;HPM_P2
2021/12/31 00:00:20;;;;;;;7.32;2.72;;;13.30;99.90;;;;;;5009297;28;20053;-71
2021/12/31 00:02:46;;;;;;;10.90;2.75;;;13.30;99.90;;;;;;5002954;28;20378;-71
2021/12/31 00:05:12;;;;;;;9.98;2.78;;;13.30;99.90;;;;;;5008973;28;20057;-71
2021/12/31 00:07:37;;;;;;;13.57;3.17;;;13.30;99.90;;;;;;5012551;28;20042;-71
2021/12/31 00:10:04;;;;;;;9.93;3.10;;;13.30;99.90;;;;;;5014494;28;20073;-71
2021/12/31 00:12:31;;;;;;;9.43;2.80;;;13.40;99.90;;;;;;5015009;28;20046;-71
2021/12/31 00:14:57;;;;;;;13.20;3.33;;;13.40;99.90;;;;;;5022562;28;20112;-71
2021/12/31 00:17:23;;;;;;;11.50;3.17;;;13.40;99.90;;;;;;5011336;28;20501;-71
2021/12/31 00:19:58;;;;;;;9.03;3.10;;;13.40;99.90;;;;;;5024921;28;20486;-72
2021/12/31 00:22:54;;;;;;;15.68;3.22;;;13.40;99.90;;;;;;5031258;28;20524;-71
2021/12/31 00:25:09;;;;;;;11.50;3.60;;;13.40;99.90;;;;;;5011938;28;20416;-71
2021/12/31 00:27:35;;;;;;;9.88;3.25;;;13.40;99.90;;;;;;5022305;28;20033;-71
2021/12/31 00:30:00;;;;;;;8.20;2.88;;;13.40;99.90;;;;;;5016211;28;20104;-71
2021/12/31 00:32:26;;;;;;;8.27;2.78;;;13.40;99.90;;;;;;5012060;28;20049;-71
2021/12/31 00:34:52;;;;;;;8.23;2.88;;;13.40;99.90;;;;;;5010987;28;20048;-71
2021/12/31 00:37:28;;;;;;;11.30;3.60;;;13.40;99.90;;;;;;5011299;28;20112;-72
2021/12/31 00:39:54;;;;;;;11.70;3.35;;;13.40;99.90;;;;;;5006606;28;20057;-71
2021/12/31 00:42:20;;;;;;;10.98;3.70;;;13.40;99.90;;;;;;5014298;28;20044;-71
2021/12/31 00:44:46;;;;;;;11.90;3.50;;;13.40;99.90;;;;;;5009231;28;20489;-71
2021/12/31 00:47:11;;;;;;;10.52;3.35;;;13.40;99.90;;;;;;5012632;28;20052;-72
2021/12/31 00:49:37;;;;;;;8.35;3.40;;;13.50;99.90;;;;;;5010536;28;20108;-71
2021/12/31 00:52:03;;;;;;;9.98;3.53;;;13.50;99.90;;;;;;5012940;28;20048;-71
2021/12/31 00:54:28;;;;;;;9.93;3.67;;;13.50;99.90;;;;;;5010681;28;20038;-72
2021/12/31 00:57:01;;;;;;;10.48;3.63;;;13.50;99.90;;;;;;5013079;28;20494;-71
2021/12/31 00:59:27;;;;;;;11.50;4.05;;;13.50;99.90;;;;;;5011228;28;20447;-71
2021/12/31 01:01:53;;;;;;;13.13;4.00;;;13.50;99.90;;;;;;5010732;28;20049;-71
2021/12/31 01:04:18;;;;;;;10.43;3.92;;;13.50;99.90;;;;;;5012227;28;20049;-71
2021/12/31 01:06:44;;;;;;;10.50;3.90;;;13.50;99.90;;;;;;5006070;28;20044;-72
2021/12/31 01:09:09;;;;;;;7.07;3.80;;;13.50;99.90;;;;;;5009736;28;20046;-71
2021/12/31 01:11:35;;;;;;;10.38;3.47;;;13.50;99.90;;;;;;5010206;28;20054;-71
2021/12/31 01:14:04;;;;;;;10.15;3.83;;;13.50;99.90;;;;;;5009874;28;20046;-72
2021/12/31 01:16:39;;;;;;;15.05;4.30;;;13.50;99.90;;;;;;5007846;28;20061;-71
2021/12/31 01:21:33;;;;;;;14.55;3.60;;;13.50;99.90;;;;;;5015188;28;20054;-71
2021/12/31 01:24:01;;;;;;;11.82;4.07;;;13.60;99.90;;;;;;5010300;28;20053;-71
2021/12/31 01:26:27;;;;;;;11.90;4.05;;;13.60;99.90;;;;;;5017521;28;20052;-71
2021/12/31 01:28:53;;;;;;;10.38;3.40;;;13.60;99.90;;;;;;5009049;28;20045;-71
2021/12/31 01:31:21;;;;;;;10.60;3.88;;;13.60;99.90;;;;;;5010535;28;20073;-72
2021/12/31 01:33:46;;;;;;;9.82;3.30;;;13.60;99.90;;;;;;5009065;28;20056;-71
2021/12/31 01:36:12;;;;;;;11.75;3.28;;;13.60;99.90;;;;;;5010976;28;20045;-71
2021/12/31 01:38:38;;;;;;;11.95;3.35;;;13.60;99.90;;;;;;5000249;28;20130;-71
2021/12/31 01:41:03;;;;;;;9.85;3.08;;;13.60;99.90;;;;;;5010531;28;20038;-71
2021/12/31 01:43:29;;;;;;;13.07;3.67;;;13.60;99.90;;;;;;5014201;28;20058;-72
2021/12/31 01:45:59;;;;;;;12.80;3.67;;;13.60;99.90;;;;;;5011630;28;20052;-71
2021/12/31 01:48:33;;;;;;;12.02;3.80;;;13.70;99.90;;;;;;5013400;28;20053;-71
2021/12/31 01:50:59;;;;;;;9.85;3.50;;;13.60;99.90;;;;;;5008478;28;20048;-72
2021/12/31 01:53:28;;;;;;;9.68;3.80;;;13.70;99.90;;;;;;5030601;28;20128;-72
2021/12/31 01:55:59;;;;;;;8.88;4.38;;;13.60;99.90;;;;;;5008988;28;20069;-71
2021/12/31 01:58:25;;;;;;;9.63;3.95;;;13.60;99.90;;;;;;5011097;28;20092;-71
2021/12/31 02:00:52;;;;;;;14.10;4.00;;;13.60;99.90;;;;;;5010222;28;20030;-71
2021/12/31 02:03:19;;;;;;;8.87;3.87;;;13.60;99.90;;;;;;5008310;28;20125;-71
2021/12/31 02:05:45;;;;;;;10.27;3.90;;;13.60;99.90;;;;;;5009867;28;20297;-71
2021/12/31 02:08:10;;;;;;;9.80;4.30;;;13.60;99.90;;;;;;5018954;28;20111;-71
2021/12/31 02:10:36;;;;;;;10.70;4.40;;;13.60;99.90;;;;;;5006295;28;20121;-72
2021/12/31 02:13:02;;;;;;;9.93;4.43;;;13.70;99.90;;;;;;5010084;28;20052;-72
2021/12/31 02:15:30;;;;;;;9.57;3.92;;;13.70;99.90;;;;;;5009757;28;20053;-71
2021/12/31 02:17:56;;;;;;;10.18;4.10;;;13.70;99.90;;;;;;5007309;28;20517;-71
2021/12/31 02:20:33;;;;;;;11.25;4.65;;;13.70;99.90;;;;;;5008875;28;20053;-71
2021/12/31 02:23:06;;;;;;;12.52;4.80;;;13.70;99.90;;;;;;5010982;28;20386;-71
2021/12/31 02:25:33;;;;;;;11.13;4.50;;;13.60;99.90;;;;;;5007036;28;20152;-71
2021/12/31 02:27:59;;;;;;;9.27;4.82;;;13.60;99.90;;;;;;5008786;28;20408;-72
2021/12/31 02:30:25;;;;;;;8.52;4.95;;;13.60;99.90;;;;;;5011845;28;20046;-71
2021/12/31 02:32:50;;;;;;;11.80;5.35;;;13.60;99.90;;;;;;4999131;28;20046;-72
2021/12/31 02:35:17;;;;;;;14.05;5.18;;;13.60;99.90;;;;;;5010008;28;20048;-71
2021/12/31 02:37:42;;;;;;;8.02;4.90;;;13.60;99.90;;;;;;5009502;28;20041;-71
2021/12/31 02:40:12;;;;;;;12.07;5.07;;;13.60;99.90;;;;;;5009952;28;20116;-72
2021/12/31 02:42:39;;;;;;;8.00;5.05;;;13.60;99.90;;;;;;5024387;28;20046;-71
2021/12/31 02:45:09;;;;;;;13.18;5.13;;;13.60;99.90;;;;;;5014960;28;20041;-71
2021/12/31 02:47:37;;;;;;;7.85;4.82;;;13.70;99.90;;;;;;5019180;28;20124;-72
2021/12/31 02:50:05;;;;;;;9.23;5.22;;;13.70;99.90;;;;;;5030713;28;20053;-72
2021/12/31 02:52:30;;;;;;;9.25;5.43;;;13.70;99.90;;;;;;5021922;28;20054;-71
2021/12/31 02:55:00;;;;;;;12.77;5.53;;;13.70;99.90;;;;;;5004319;28;20057;-72
2021/12/31 02:57:26;;;;;;;10.20;5.93;;;13.70;99.90;;;;;;5006197;28;20077;-71
2021/12/31 02:59:51;;;;;;;6.70;4.75;;;13.70;99.90;;;;;;5027809;28;20081;-71
2021/12/31 03:02:24;;;;;;;9.27;4.72;;;13.70;99.90;;;;;;5014131;28;20668;-72
2021/12/31 03:04:52;;;;;;;9.18;5.20;;;13.70;99.90;;;;;;5033602;28;20081;-71
2021/12/31 03:07:19;;;;;;;12.55;5.30;;;13.70;99.90;;;;;;5007840;28;20063;-72
2021/12/31 03:09:47;;;;;;;8.90;5.00;;;13.80;99.90;;;;;;5008234;28;20038;-71
2021/12/31 03:12:14;;;;;;;7.80;4.78;;;13.80;99.90;;;;;;5022031;28;20552;-71
2021/12/31 03:14:47;;;;;;;8.52;4.95;;;13.80;99.90;;;;;;5007625;28;20057;-71
2021/12/31 03:17:13;;;;;;;10.63;5.22;;;13.80;99.90;;;;;;5021613;28;20062;-71
2021/12/31 03:19:39;;;;;;;11.27;4.63;;;13.80;99.90;;;;;;5009169;28;20087;-71
2021/12/31 03:22:05;;;;;;;8.35;4.80;;;13.80;99.90;;;;;;5009581;28;20792;-71
2021/12/31 03:24:33;;;;;;;8.48;5.10;;;13.80;99.90;;;;;;5007999;28;20046;-72
2021/12/31 03:26:58;;;;;;;9.35;5.22;;;13.70;99.90;;;;;;5011229;28;20054;-72
2021/12/31 03:29:24;;;;;;;10.52;5.30;;;13.80;99.90;;;;;;5023455;28;20079;-72
2021/12/31 03:31:50;;;;;;;6.47;4.53;;;13.80;99.90;;;;;;5008965;28;20077;-71
2021/12/31 03:34:15;;;;;;;9.32;5.20;;;13.80;99.90;;;;;;5007887;28;20037;-71
2021/12/31 03:36:42;;;;;;;9.65;4.82;;;13.90;99.90;;;;;;5010920;28;20049;-71
2021/12/31 03:39:09;;;;;;;8.88;4.82;;;13.90;99.90;;;;;;5007112;28;20497;-71
2021/12/31 03:41:35;;;;;;;9.48;5.18;;;13.90;99.90;;;;;;5008466;28;20042;-71
2021/12/31 03:44:02;;;;;;;9.25;4.78;;;13.90;99.90;;;;;;5006735;28;20468;-72
2021/12/31 03:46:28;;;;;;;8.95;4.65;;;13.80;99.90;;;;;;5009592;28;20060;-71
2021/12/31 03:48:53;;;;;;;7.70;4.78;;;13.90;99.90;;;;;;5008122;28;20042;-71
2021/12/31 03:51:19;;;;;;;7.75;4.90;;;13.90;99.90;;;;;;5006590;28;20042;-71
2021/12/31 03:53:44;;;;;;;7.82;4.72;;;13.80;99.90;;;;;;5006696;28;20042;-71
2021/12/31 03:56:10;;;;;;;9.60;5.10;;;13.90;99.90;;;;;;5010353;28;20072;-71
2021/12/31 03:58:36;;;;;;;9.45;4.82;;;13.80;99.90;;;;;;5007977;28;20050;-71
2021/12/31 04:01:02;;;;;;;6.85;5.03;;;13.90;99.90;;;;;;5024514;28;20045;-71
2021/12/31 04:03:27;;;;;;;7.40;4.50;;;13.80;99.90;;;;;;5025834;28;20042;-71
2021/12/31 04:05:53;;;;;;;8.55;4.65;;;13.80;99.90;;;;;;5009974;28;20095;-71
2021/12/31 04:08:19;;;;;;;9.23;5.00;;;13.80;99.90;;;;;;5007143;28;20158;-72
2021/12/31 04:10:45;;;;;;;8.55;5.65;;;13.80;99.90;;;;;;5014805;28;20038;-72
2021/12/31 04:13:11;;;;;;;10.73;4.90;;;13.90;99.90;;;;;;5010595;28;20081;-71
2021/12/31 04:15:36;;;;;;;7.40;4.95;;;13.80;99.90;;;;;;5008873;28;20054;-71
2021/12/31 04:18:02;;;;;;;9.45;5.55;;;13.80;99.90;;;;;;5007000;28;20092;-71
2021/12/31 04:20:41;;;;;;;7.95;5.30;;;13.80;99.90;;;;;;5008668;28;20096;-71
2021/12/31 04:23:13;;;;;;;7.88;5.60;;;13.80;99.90;;;;;;5007386;28;20057;-71
2021/12/31 04:25:39;;;;;;;7.28;5.05;;;13.90;99.90;;;;;;5008404;28;20037;-71
2021/12/31 04:28:05;;;;;;;12.07;5.72;;;13.80;99.90;;;;;;5007884;28;20041;-72
2021/12/31 04:30:32;;;;;;;8.90;5.85;;;13.80;99.90;;;;;;5012073;28;20132;-72
2021/12/31 04:32:58;;;;;;;6.97;4.97;;;13.70;99.90;;;;;;5016748;28;20092;-72
2021/12/31 04:35:24;;;;;;;8.82;5.43;;;13.70;99.90;;;;;;5025083;28;20048;-72
2021/12/31 04:37:49;;;;;;;9.70;5.35;;;13.70;99.90;;;;;;5007081;28;20042;-71
2021/12/31 04:40:15;;;;;;;10.38;5.85;;;13.70;99.90;;;;;;5005317;28;20081;-71
2021/12/31 04:42:42;;;;;;;10.45;5.72;;;13.70;99.90;;;;;;5008890;28;20393;-71
2021/12/31 04:45:10;;;;;;;9.20;5.72;;;13.60;99.90;;;;;;5007244;28;20557;-71
2021/12/31 04:47:36;;;;;;;10.43;6.20;;;13.60;99.90;;;;;;5007288;28;20081;-71
2021/12/31 04:50:03;;;;;;;8.23;6.30;;;13.60;99.90;;;;;;5022091;28;20100;-72
2021/12/31 04:52:28;;;;;;;9.07;6.43;;;13.60;99.90;;;;;;5014149;28;20060;-71
2021/12/31 04:54:54;;;;;;;11.95;7.15;;;13.50;99.90;;;;;;5028402;28;20054;-71
2021/12/31 04:57:23;;;;;;;8.85;6.38;;;13.50;99.90;;;;;;5012203;28;20045;-71
2021/12/31 04:59:48;;;;;;;9.30;6.55;;;13.50;99.90;;;;;;5008268;28;20048;-71
2021/12/31 05:02:14;;;;;;;10.55;5.95;;;13.50;99.90;;;;;;5013212;28;20050;-71
2021/12/31 05:04:39;;;;;;;9.50;6.63;;;13.40;99.90;;;;;;5011065;28;20042;-71
2021/12/31 05:07:05;;;;;;;9.48;6.30;;;13.40;99.90;;;;;;5010084;28;20048;-71
2021/12/31 05:09:31;;;;;;;9.27;6.20;;;13.40;99.90;;;;;;5010290;28;20089;-72
2021/12/31 05:11:56;;;;;;;8.70;6.03;;;13.40;99.90;;;;;;5013385;28;20038;-71
2021/12/31 05:14:22;;;;;;;10.10;5.72;;;13.40;99.90;;;;;;5026614;28;20512;-71
2021/12/31 05:16:48;;;;;;;9.57;5.88;;;13.40;99.90;;;;;;5008898;28;20050;-71
2021/12/31 05:19:13;;;;;;;7.50;5.70;;;13.30;99.90;;;;;;5024379;28;20085;-71
2021/12/31 05:21:39;;;;;;;11.65;5.50;;;13.30;99.90;;;;;;5015984;28;20482;-71
2021/12/31 05:24:05;;;;;;;9.15;5.45;;;13.30;99.90;;;;;;5009910;28;20060;-71
2021/12/31 05:26:31;;;;;;;8.85;5.10;;;13.30;99.90;;;;;;5010759;28;20042;-71
2021/12/31 05:28:56;;;;;;;7.82;5.07;;;13.30;99.90;;;;;;5016589;28;20133;-71
2021/12/31 05:31:22;;;;;;;12.73;5.55;;;13.30;99.90;;;;;;5011395;28;20106;-72
2021/12/31 05:33:48;;;;;;;9.07;4.90;;;13.30;99.90;;;;;;5006970;28;20110;-72
2021/12/31 05:36:13;;;;;;;8.18;4.80;;;13.30;99.90;;;;;;5010481;28;20049;-71
2021/12/31 05:38:39;;;;;;;11.00;5.25;;;13.30;99.90;;;;;;5007465;28;20050;-71
2021/12/31 05:41:06;;;;;;;7.10;4.35;;;13.30;99.90;;;;;;5027715;28;20667;-71
2021/12/31 05:43:32;;;;;;;9.37;4.67;;;13.30;99.90;;;;;;5009289;28;20058;-71
2021/12/31 05:45:57;;;;;;;9.77;3.75;;;13.30;99.90;;;;;;5010358;28;20046;-72
2021/12/31 05:48:24;;;;;;;7.15;4.00;;;13.30;99.90;;;;;;5014701;28;20052;-71
2021/12/31 05:50:50;;;;;;;9.43;3.92;;;13.30;99.90;;;;;;5009150;28;20034;-71
2021/12/31 05:53:15;;;;;;;8.80;3.67;;;13.20;99.90;;;;;;5011348;28;20053;-72
2021/12/31 05:55:41;;;;;;;6.78;3.65;;;13.20;99.90;;;;;;5009944;28;20042;-71
2021/12/31 05:58:07;;;;;;;6.43;3.58;;;13.20;99.90;;;;;;5008339;28;20111;-71
2021/12/31 06:00:32;;;;;;;7.53;3.45;;;13.20;99.90;;;;;;5010714;28;20053;-71
2021/12/31 06:02:58;;;;;;;6.07;3.20;;;13.20;99.90;;;;;;5008469;28;20390;-71
2021/12/31 06:05:25;;;;;;;6.68;3.72;;;13.20;99.90;;;;;;5012517;28;20041;-71
2021/12/31 06:07:51;;;;;;;;;;;13.20;99.90;;;;;;5008660;28;20100;-72
2021/12/31 06:10:17;;;;;;;5.53;3.30;;;13.10;99.90;;;;;;5011400;28;20365;-71
2021/12/31 06:12:43;;;;;;;6.78;3.20;;;13.20;99.90;;;;;;5008037;28;20474;-71
2021/12/31 06:15:10;;;;;;;7.03;3.70;;;13.20;99.90;;;;;;5010587;28;20498;-72
2021/12/31 06:17:37;;;;;;;7.28;3.20;;;13.20;99.90;;;;;;5007326;28;20045;-71
2021/12/31 06:20:05;;;;;;;8.18;3.25;;;13.20;99.90;;;;;;5021230;28;20046;-71
2021/12/31 06:22:31;;;;;;;7.45;3.70;;;13.20;99.90;;;;;;5010405;28;20089;-73
2021/12/31 06:24:57;;;;;;;8.25;4.00;;;13.20;99.90;;;;;;5008969;28;20088;-72
2021/12/31 06:27:23;;;;;;;10.40;4.00;;;13.10;99.90;;;;;;5008555;28;20046;-71
2021/12/31 06:29:48;;;;;;;8.80;3.63;;;13.10;99.90;;;;;;5011222;28;20052;-72
2021/12/31 06:32:14;;;;;;;9.32;3.50;;;13.20;99.90;;;;;;5005676;28;20046;-71
2021/12/31 06:34:39;;;;;;;7.97;3.75;;;13.20;99.90;;;;;;5010580;28;20065;-71
2021/12/31 06:37:05;;;;;;;9.35;3.60;;;13.10;99.90;;;;;;5008206;28;20077;-72
2021/12/31 06:39:31;;;;;;;6.63;3.55;;;13.10;99.90;;;;;;4990475;28;20053;-72
2021/12/31 06:41:57;;;;;;;6.32;3.85;;;13.10;99.90;;;;;;5009894;28;20046;-71
2021/12/31 06:44:22;;;;;;;10.32;4.30;;;13.10;99.90;;;;;;5011151;28;20133;-71
2021/12/31 06:46:48;;;;;;;6.85;3.65;;;13.20;99.90;;;;;;5008360;28;20042;-71
2021/12/31 06:49:13;;;;;;;8.52;3.95;;;13.20;99.90;;;;;;5012789;28;20397;-71
2021/12/31 06:51:39;;;;;;;8.10;3.90;;;13.20;99.90;;;;;;5016113;28;20504;-72
2021/12/31 06:54:05;;;;;;;9.52;3.70;;;13.20;99.90;;;;;;5006326;28;20046;-71
2021/12/31 06:56:30;;;;;;;7.70;4.00;;;13.10;99.90;;;;;;5010123;28;20088;-71
2021/12/31 06:58:56;;;;;;;8.68;4.00;;;13.10;99.90;;;;;;5004041;28;20053;-71
2021/12/31 07:01:22;;;;;;;11.15;4.32;;;13.10;99.90;;;;;;5011240;28;20569;-72
2021/12/31 07:03:48;;;;;;;8.13;3.78;;;13.10;99.90;;;;;;5009929;28;20046;-71
2021/12/31 07:06:13;;;;;;;8.30;3.85;;;13.10;99.90;;;;;;5007181;28;20584;-71
2021/12/31 07:08:40;;;;;;;7.50;4.07;;;13.10;99.90;;;;;;5003262;28;20046;-71
2021/12/31 07:11:06;;;;;;;7.68;3.78;;;13.10;99.90;;;;;;5006824;28;20042;-70
2021/12/31 07:13:32;;;;;;;7.97;4.43;;;13.10;99.90;;;;;;5015025;28;20061;-71
2021/12/31 07:15:58;;;;;;;7.30;3.63;;;13.10;99.90;;;;;;5005769;28;20057;-71
2021/12/31 07:18:24;;;;;;;10.00;3.80;;;13.10;99.90;;;;;;5005470;28;20413;-72
2021/12/31 07:20:49;;;;;;;7.38;3.60;;;13.10;99.90;;;;;;5011394;28;20398;-71
2021/12/31 07:23:21;;;;;;;8.38;4.13;;;13.10;99.90;;;;;;5005814;28;20049;-72
2021/12/31 07:25:47;;;;;;;7.25;3.75;;;13.10;99.90;;;;;;5008467;28;20386;-71
2021/12/31 07:28:13;;;;;;;8.57;3.55;;;13.10;99.90;;;;;;5007117;28;20057;-71
2021/12/31 07:30:40;;;;;;;5.95;4.15;;;13.10;99.90;;;;;;5006521;28;20497;-71
2021/12/31 07:33:06;;;;;;;8.23;3.97;;;13.10;99.90;;;;;;5010678;28;20045;-71
2021/12/31 07:35:32;;;;;;;8.65;3.65;;;13.10;99.90;;;;;;4991604;28;20046;-71
2021/12/31 07:37:59;;;;;;;9.38;4.40;;;13.00;99.90;;;;;;5002999;28;20132;-71
2021/12/31 07:40:28;;;;;;;7.85;4.30;;;13.00;99.90;;;;;;5024938;28;20543;-71
2021/12/31 07:42:54;;;;;;;7.95;4.53;;;13.00;99.90;;;;;;5007295;28;20537;-72
2021/12/31 07:45:20;;;;;;;6.78;4.10;;;13.00;99.90;;;;;;5006504;28;20125;-71
2021/12/31 07:47:46;;;;;;;6.00;3.88;;;12.90;99.90;;;;;;5009534;28;20485;-71
2021/12/31 07:50:11;;;;;;;9.32;4.60;;;12.90;99.90;;;;;;5006750;28;20074;-71
2021/12/31 07:52:38;;;;;;;8.57;3.80;;;12.90;99.90;;;;;;5005448;28;20524;-71
2021/12/31 07:55:05;;;;;;;7.70;4.30;;;12.90;99.90;;;;;;5008973;28;20492;-71
2021/12/31 07:57:30;;;;;;;11.20;4.43;;;12.90;99.90;;;;;;5011577;28;20053;-71
2021/12/31 07:59:56;;;;;;;9.40;4.60;;;12.90;99.90;;;;;;5007299;28;20461;-72
2021/12/31 08:02:21;;;;;;;6.10;4.00;;;12.80;99.90;;;;;;5006381;28;20045;-71
2021/12/31 08:04:47;;;;;;;8.05;4.68;;;12.80;99.90;;;;;;5009303;28;20136;-71
2021/12/31 08:07:12;;;;;;;8.15;4.30;;;12.80;99.90;;;;;;5009638;28;20409;-73
2021/12/31 08:09:38;;;;;;;9.02;4.25;;;12.80;99.90;;;;;;5010219;28;20050;-71
2021/12/31 08:12:04;;;;;;;9.65;4.68;;;12.80;99.90;;;;;;4993402;28;20046;-71
2021/12/31 08:14:30;;;;;;;8.98;4.32;;;12.80;99.90;;;;;;5004612;28;20081;-71
2021/12/31 08:16:55;;;;;;;7.32;4.32;;;12.70;99.90;;;;;;5004971;28;20919;-71
2021/12/31 08:19:21;;;;;;;8.60;4.22;;;12.80;99.90;;;;;;5013111;28;20049;-71
2021/12/31 08:21:47;;;;;;;9.57;4.03;;;12.80;99.90;;;;;;5010306;28;20129;-71
2021/12/31 08:24:12;;;;;;;7.85;4.60;;;12.80;99.90;;;;;;5007723;28;20038;-71
2021/12/31 08:26:38;;;;;;;9.05;4.47;;;12.80;99.90;;;;;;5008360;28;20046;-72
2021/12/31 08:29:05;;;;;;;8.68;4.47;;;12.80;99.90;;;;;;5011544;28;20053;-73
2021/12/31 08:31:31;;;;;;;8.27;4.10;;;12.80;99.90;;;;;;5011516;28;20057;-73
2021/12/31 08:33:57;;;;;;;7.05;4.05;;;12.80;99.90;;;;;;5012170;28;20053;-72
2021/12/31 08:36:22;;;;;;;9.93;4.60;;;12.80;99.90;;;;;;5012409;28;20089;-73
2021/12/31 08:38:48;;;;;;;6.80;4.60;;;12.80;99.90;;;;;;5010836;28;20283;-73
2021/12/31 08:41:14;;;;;;;7.38;4.32;;;12.80;99.90;;;;;;5011427;28;20096;-73
2021/12/31 08:43:39;;;;;;;6.72;4.25;;;12.80;99.90;;;;;;5012454;28;20596;-72
2021/12/31 08:46:05;;;;;;;7.78;4.57;;;12.90;99.90;;;;;;5011460;28;20493;-72
2021/12/31 08:48:31;;;;;;;7.63;4.00;;;12.90;99.90;;;;;;5028197;28;20081;-72
2021/12/31 08:50:56;;;;;;;7.18;4.20;;;12.90;99.90;;;;;;5003657;28;20065;-72
2021/12/31 08:53:22;;;;;;;7.07;4.70;;;13.00;99.90;;;;;;5004710;28;20054;-73
2021/12/31 08:55:48;;;;;;;8.32;4.28;;;13.00;99.90;;;;;;5010521;28;20125;-74
2021/12/31 08:58:13;;;;;;;6.32;4.03;;;13.00;99.90;;;;;;5013887;28;20084;-73
2021/12/31 09:00:39;;;;;;;8.98;4.28;;;13.00;99.90;;;;;;5023779;28;20045;-73
2021/12/31 09:03:04;;;;;;;8.43;4.10;;;13.00;99.90;;;;;;5031935;28;20500;-74
2021/12/31 09:05:30;;;;;;;6.63;3.95;;;13.00;99.90;;;;;;5029846;28;20508;-73
2021/12/31 09:07:56;;;;;;;8.35;4.32;;;13.00;99.90;;;;;;5019425;28;20133;-73
2021/12/31 09:10:21;;;;;;;7.15;3.97;;;13.10;99.90;;;;;;5008465;28;20084;-73
2021/12/31 09:12:48;;;;;;;5.55;3.53;;;13.10;99.90;;;;;;5020307;28;20042;-72
2021/12/31 09:15:13;;;;;;;7.30;3.50;;;13.10;99.90;;;;;;5009785;28;20042;-72
2021/12/31 09:17:40;;;;;;;8.57;4.13;;;13.10;99.90;;;;;;5007497;28;20104;-71
2021/12/31 09:20:06;;;;;;;7.80;4.32;;;13.10;99.90;;;;;;5003464;28;20038;-71
2021/12/31 09:22:32;;;;;;;7.80;3.63;;;13.10;99.90;;;;;;5007890;28;20057;-71
2021/12/31 09:24:58;;;;;;;7.65;4.05;;;13.10;99.90;;;;;;5008527;28;20137;-71
2021/12/31 09:27:24;;;;;;;8.13;4.28;;;13.10;99.90;;;;;;5008532;28;20046;-71
2021/12/31 09:29:50;;;;;;;5.80;3.95;;;13.10;99.90;;;;;;5007504;28;20619;-71
2021/12/31 09:32:16;;;;;;;8.60;4.53;;;13.10;99.90;;;;;;5009661;28;20038;-71
2021/12/31 09:34:44;;;;;;;7.70;4.05;;;13.10;99.90;;;;;;5007398;28;20084;-71
2021/12/31 09:37:11;;;;;;;8.13;3.83;;;13.10;99.90;;;;;;5008820;28;20046;-72
2021/12/31 09:39:37;;;;;;;10.15;3.88;;;13.10;99.90;;;;;;5006566;28;20057;-72
2021/12/31 09:42:07;;;;;;;7.35;4.00;;;13.10;99.90;;;;;;5006730;28;20057;-71
2021/12/31 09:44:33;;;;;;;8.38;4.38;;;13.10;99.90;;;;;;5007528;28;20081;-72
2021/12/31 09:46:59;;;;;;;8.02;4.35;;;13.10;99.90;;;;;;5004334;28;20049;-71
2021/12/31 09:49:25;;;;;;;6.53;3.95;;;13.10;99.90;;;;;;5006830;28;20072;-71
2021/12/31 09:51:51;;;;;;;7.43;4.00;;;13.20;99.90;;;;;;5021686;28;20067;-71
2021/12/31 09:54:21;;;;;;;6.47;3.70;;;13.20;99.90;;;;;;5026891;28;20038;-71
2021/12/31 09:56:49;;;;;;;8.25;4.10;;;13.10;99.90;;;;;;4997294;28;20069;-72
2021/12/31 09:59:14;;;;;;;;;;;13.20;99.90;;;;;;5009212;28;20081;-72
2021/12/31 10:01:48;;;;;;;7.07;4.18;;;13.20;99.90;;;;;;5005124;28;19983;-73
2021/12/31 10:04:14;;;;;;;9.05;3.97;;;13.20;99.90;;;;;;5011838;28;20052;-75
2021/12/31 10:07:10;;;;;;;9.02;4.10;;;13.20;99.90;;;;;;5008606;28;20481;-72
2021/12/31 10:09:38;;;;;;;9.55;4.07;;;13.20;99.90;;;;;;5014035;28;20049;-71
2021/12/31 10:12:04;;;;;;;8.60;3.88;;;13.20;99.90;;;;;;5008226;28;20060;-70
2021/12/31 10:14:39;;;;;;;6.85;4.38;;;13.20;99.90;;;;;;5008781;28;20050;-71
2021/12/31 10:17:06;;;;;;;7.60;4.55;;;13.20;99.90;;;;;;4979610;28;20049;-70
2021/12/31 10:19:32;;;;;;;7.05;4.70;;;13.30;99.90;;;;;;4991920;28;20058;-70
2021/12/31 10:21:58;;;;;;;8.32;5.10;;;13.30;99.90;;;;;;4992062;28;20057;-76
2021/12/31 10:24:33;;;;;;;9.55;5.60;;;13.30;99.90;;;;;;4984403;28;20061;-71
2021/12/31 10:27:20;;;;;;;14.98;6.93;;;13.30;99.90;;;;;;4976624;28;20049;-70
2021/12/31 10:29:59;;;;;;;10.45;6.57;;;13.30;99.90;;;;;;4965846;28;20100;-71
2021/12/31 10:32:33;;;;;;;12.75;6.90;;;13.30;99.90;;;;;;4973194;28;20065;-69
2021/12/31 10:35:16;;;;;;;11.70;5.82;;;13.30;99.90;;;;;;4972016;28;20096;-71
2021/12/31 10:37:44;;;;;;;10.45;5.82;;;13.30;99.90;;;;;;4971344;28;20605;-70
2021/12/31 10:40:10;;;;;;;9.10;5.35;;;13.30;99.90;;;;;;4972478;28;20116;-70
2021/12/31 10:42:37;;;;;;;10.27;5.40;;;13.30;99.90;;;;;;4971490;28;20112;-71
2021/12/31 10:45:05;;;;;;;9.67;5.20;;;13.30;99.90;;;;;;4970679;28;20377;-70
2021/12/31 10:47:37;;;;;;;8.65;5.05;;;13.30;99.90;;;;;;4972700;28;20062;-71
2021/12/31 10:50:03;;;;;;;10.15;5.15;;;13.30;99.90;;;;;;4973772;28;20052;-71
2021/12/31 10:52:36;;;;;;;9.32;4.70;;;13.30;99.90;;;;;;4991166;28;20136;-71
2021/12/31 10:55:26;;;;;;;8.90;5.18;;;13.30;99.90;;;;;;4974799;28;20047;-69
2021/12/31 10:58:04;;;;;;;9.93;5.32;;;13.30;99.90;;;;;;4971062;28;20061;-71
2021/12/31 11:00:35;;;;;;;8.57;4.78;;;13.30;99.90;;;;;;4979353;28;20056;-72
2021/12/31 11:03:01;;;;;;;9.25;4.53;;;13.30;99.90;;;;;;4972360;28;20129;-70
2021/12/31 11:05:27;;;;;;;8.95;5.20;;;13.30;99.90;;;;;;4989001;28;20101;-71
2021/12/31 11:07:54;;;;;;;10.43;4.82;;;13.30;99.90;;;;;;4987499;28;20078;-74
2021/12/31 11:10:25;;;;;;;9.45;5.38;;;13.30;99.90;;;;;;4970725;28;20064;-72
2021/12/31 11:12:52;;;;;;;8.40;5.55;;;13.40;99.90;;;;;;4962860;28;20045;-75
2021/12/31 11:15:18;;;;;;;8.55;5.30;;;13.40;99.90;;;;;;4983316;28;20064;-72
2021/12/31 11:17:44;;;;;;;7.25;4.65;;;13.40;99.90;;;;;;5008689;28;20054;-72
2021/12/31 11:20:18;;;;;;;8.88;4.30;;;13.40;99.90;;;;;;5007936;28;20136;-72
2021/12/31 11:22:43;;;;;;;8.88;4.68;;;13.50;99.90;;;;;;5005869;28;20061;-73
2021/12/31 11:25:23;;;;;;;7.05;4.63;;;13.50;99.90;;;;;;5007496;28;20045;-71
2021/12/31 11:27:51;;;;;;;8.90;4.75;;;13.50;99.90;;;;;;5007263;28;20045;-72
2021/12/31 11:30:32;;;;;;;7.68;4.75;;;13.50;99.90;;;;;;5007473;28;20053;-73
2021/12/31 11:33:05;;;;;;;7.97;4.85;;;13.50;99.90;;;;;;5007062;28;20050;-73
2021/12/31 11:35:55;;;;;;;8.15;4.97;;;13.60;99.90;;;;;;5006760;28;20108;-73
2021/12/31 11:38:21;;;;;;;9.23;4.90;;;13.60;99.90;;;;;;5008042;28;20060;-73
2021/12/31 11:40:52;;;;;;;10.38;5.57;;;13.60;99.90;;;;;;5005295;28;20405;-72
2021/12/31 11:43:22;;;;;;;10.20;5.00;;;13.50;99.90;;;;;;5007879;28;20099;-73
2021/12/31 11:46:10;;;;;;;10.23;5.68;;;13.50;99.90;;;;;;5002428;28;20042;-73
2021/12/31 11:51:12;;;;;;;12.75;5.93;;;13.60;99.90;;;;;;5001521;28;20053;-71
2021/12/31 11:53:59;;;;;;;9.85;6.50;;;13.50;99.90;;;;;;5006411;28;20042;-73
2021/12/31 11:56:37;;;;;;;12.15;8.18;;;13.50;99.90;;;;;;5003184;28;20092;-72
2021/12/31 11:59:08;;;;;;;13.60;8.60;;;13.50;99.90;;;;;;5006519;28;20079;-71
2021/12/31 12:01:37;;;;;;;14.18;8.68;;;13.50;99.90;;;;;;5007847;28;20054;-72
2021/12/31 12:04:22;;;;;;;13.32;7.95;;;13.40;99.90;;;;;;5010904;28;20056;-71
2021/12/31 12:06:57;;;;;;;10.95;6.97;;;13.40;99.90;;;;;;5005588;28;20172;-71
2021/12/31 12:09:44;;;;;;;9.13;7.35;;;13.40;99.90;;;;;;5010204;28;20099;-72
2021/12/31 12:12:13;;;;;;;10.43;6.90;;;13.30;99.90;;;;;;5009409;28;20663;-71
2021/12/31 12:14:45;;;;;;;10.65;7.18;;;13.30;99.90;;;;;;5010008;28;20502;-72
2021/12/31 12:17:39;;;;;;;13.20;7.50;;;13.30;99.90;;;;;;4975970;28;20054;-71
2021/12/31 12:20:10;;;;;;;13.73;8.20;;;13.30;99.90;;;;;;4971591;28;20070;-71
2021/12/31 12:22:49;;;;;;;13.70;8.45;;;13.30;99.90;;;;;;4971894;28;20046;-72
2021/12/31 12:25:21;;;;;;;12.35;7.82;;;13.30;99.90;;;;;;4974290;28;20133;-73
2021/12/31 12:27:49;;;;;;;11.27;7.65;;;13.20;99.90;;;;;;4974301;28;20046;-71
2021/12/31 12:30:15;;;;;;;15.07;7.72;;;13.20;99.90;;;;;;4974144;28;20091;-72
2021/12/31 12:35:18;;;;;;;14.00;7.38;;;13.20;99.90;;;;;;4971974;28;20049;-71
2021/12/31 12:37:58;;;;;;;11.43;7.55;;;13.20;99.90;;;;;;4988989;28;20142;-71
2021/12/31 12:40:45;;;;;;;11.18;7.45;;;13.20;99.90;;;;;;4973177;28;20490;-69
2021/12/31 12:43:16;;;;;;;12.10;7.63;;;13.20;99.90;;;;;;4975993;28;20046;-70
2021/12/31 12:45:44;;;;;;;11.38;7.63;;;13.20;99.90;;;;;;4971766;28;20068;-70
2021/12/31 12:48:10;;;;;;;12.32;7.90;;;13.10;99.90;;;;;;4973854;28;20509;-69
2021/12/31 12:50:36;;;;;;;11.63;7.72;;;13.10;99.90;;;;;;4979152;28;20088;-70
2021/12/31 12:53:03;;;;;;;13.80;8.20;;;13.10;99.90;;;;;;4975047;28;20034;-68